N208CV KSMO-KLAX
Flight info
| Callsign | N208CV |
|---|---|
| Flight time | 0h -5m |
| Altitude | 6000 |
| Route | DCT |
| Aircraft | C208/L-SDFGR/C |
Departure
| Time | 2026-05-08 00:48 |
|---|---|
| Airport | Santa Monica Municipal Airport (KSMO) |
Arrival
| Time | 2026-05-08 00:43 |
|---|---|
| Airport | Los Angeles International Airport (KLAX) |
| Time | Latitude | Longitude | Altitude | Speed | Heading |
|---|---|---|---|---|---|
| 2026-05-08 00:43 | 34.02094 | -118.44605 | 192 ft | 0 kts | 133° |
| 2026-05-08 00:48 | 34.01991 | -118.44648 | 190 ft | 29 kts | 223° |
| 2026-05-08 00:48 | 34.01721 | -118.44963 | 222 ft | 87 kts | 227° |
| 2026-05-08 00:48 | 34.01247 | -118.45537 | 555 ft | 100 kts | 220° |
| 2026-05-08 00:48 | 34.00688 | -118.46060 | 933 ft | 104 kts | 220° |
| 2026-05-08 00:49 | 34.00119 | -118.46606 | 1307 ft | 106 kts | 221° |
| 2026-05-08 00:49 | 33.99547 | -118.47182 | 1686 ft | 109 kts | 220° |
| 2026-05-08 00:49 | 33.98966 | -118.47802 | 2030 ft | 117 kts | 221° |
| 2026-05-08 00:49 | 33.98326 | -118.48471 | 2400 ft | 126 kts | 223° |
| 2026-05-08 00:50 | 33.97875 | -118.49361 | 2767 ft | 129 kts | 269° |
| 2026-05-08 00:50 | 33.98256 | -118.50335 | 2991 ft | 144 kts | 320° |
| 2026-05-08 00:50 | 33.99236 | -118.50597 | 3258 ft | 150 kts | 1° |
| 2026-05-08 00:50 | 34.00270 | -118.50707 | 3538 ft | 149 kts | 349° |
| 2026-05-08 00:51 | 34.01305 | -118.50863 | 3821 ft | 150 kts | 349° |
| 2026-05-08 00:51 | 34.02328 | -118.51010 | 4111 ft | 151 kts | 349° |
| 2026-05-08 00:51 | 34.03389 | -118.51152 | 4407 ft | 152 kts | 349° |
| 2026-05-08 00:51 | 34.04434 | -118.51280 | 4699 ft | 150 kts | 349° |
| 2026-05-08 00:52 | 34.05479 | -118.51209 | 4972 ft | 157 kts | 11° |
| 2026-05-08 00:52 | 34.06371 | -118.50340 | 5007 ft | 182 kts | 55° |
| 2026-05-08 00:52 | 34.06718 | -118.48825 | 4994 ft | 175 kts | 80° |
| 2026-05-08 00:52 | 34.06835 | -118.47591 | 4982 ft | 127 kts | 81° |
| 2026-05-08 00:53 | 34.06939 | -118.46464 | 5080 ft | 158 kts | 81° |
| 2026-05-08 00:53 | 34.07076 | -118.44992 | 5007 ft | 190 kts | 82° |
| 2026-05-08 00:53 | 34.07237 | -118.43360 | 5009 ft | 200 kts | 82° |
| 2026-05-08 00:53 | 34.07408 | -118.41678 | 5009 ft | 203 kts | 82° |
| 2026-05-08 00:54 | 34.07581 | -118.39980 | 5008 ft | 205 kts | 82° |
| 2026-05-08 00:54 | 34.07751 | -118.38270 | 5006 ft | 206 kts | 82° |
| 2026-05-08 00:54 | 34.07926 | -118.36550 | 5011 ft | 206 kts | 81° |
| 2026-05-08 00:54 | 34.08103 | -118.34845 | 5004 ft | 202 kts | 82° |
| 2026-05-08 00:55 | 34.08277 | -118.33185 | 4995 ft | 196 kts | 82° |
| 2026-05-08 00:55 | 34.08451 | -118.31568 | 4982 ft | 194 kts | 81° |
| 2026-05-08 00:55 | 34.08614 | -118.29951 | 4981 ft | 194 kts | 82° |
| 2026-05-08 00:55 | 34.08698 | -118.28344 | 4982 ft | 196 kts | 98° |
| 2026-05-08 00:56 | 34.08085 | -118.26908 | 4981 ft | 195 kts | 139° |
| 2026-05-08 00:56 | 34.06933 | -118.26107 | 4984 ft | 190 kts | 160° |
| 2026-05-08 00:56 | 34.05711 | -118.25495 | 4999 ft | 190 kts | 162° |
| 2026-05-08 00:56 | 34.04492 | -118.24885 | 4996 ft | 189 kts | 162° |
| 2026-05-08 00:57 | 34.03256 | -118.24269 | 4818 ft | 196 kts | 162° |
| 2026-05-08 00:57 | 34.01982 | -118.23625 | 4600 ft | 200 kts | 161° |
| 2026-05-08 00:57 | 34.00697 | -118.22964 | 4379 ft | 197 kts | 161° |
| 2026-05-08 00:57 | 33.99450 | -118.22347 | 4157 ft | 189 kts | 168° |
| 2026-05-08 00:58 | 33.98217 | -118.22400 | 3943 ft | 176 kts | 200° |
| 2026-05-08 00:58 | 33.97235 | -118.23166 | 3737 ft | 166 kts | 229° |
| 2026-05-08 00:58 | 33.96442 | -118.24178 | 3526 ft | 166 kts | 231° |
| 2026-05-08 00:58 | 33.95732 | -118.25129 | 3452 ft | 122 kts | 237° |
| 2026-05-08 00:59 | 33.95333 | -118.25830 | 3221 ft | 91 kts | 242° |
| 2026-05-08 00:59 | 33.95048 | -118.26507 | 2943 ft | 88 kts | 256° |
| 2026-05-08 00:59 | 33.94912 | -118.27216 | 2807 ft | 85 kts | 261° |
| 2026-05-08 00:59 | 33.94809 | -118.27883 | 2606 ft | 77 kts | 261° |
| 2026-05-08 01:00 | 33.94703 | -118.28533 | 2343 ft | 79 kts | 261° |
| 2026-05-08 01:00 | 33.94603 | -118.29136 | 2191 ft | 72 kts | 259° |
| 2026-05-08 01:00 | 33.94538 | -118.29725 | 2028 ft | 71 kts | 263° |
| 2026-05-08 01:00 | 33.94498 | -118.30288 | 1889 ft | 64 kts | 264° |
| 2026-05-08 01:01 | 33.94450 | -118.30819 | 1766 ft | 65 kts | 264° |
| 2026-05-08 01:01 | 33.94399 | -118.31364 | 1621 ft | 65 kts | 263° |
| 2026-05-08 01:01 | 33.94362 | -118.31911 | 1471 ft | 63 kts | 263° |
| 2026-05-08 01:01 | 33.94360 | -118.32413 | 1378 ft | 60 kts | 265° |
| 2026-05-08 01:02 | 33.94337 | -118.32941 | 1274 ft | 65 kts | 261° |
| 2026-05-08 01:02 | 33.94273 | -118.33479 | 1182 ft | 63 kts | 258° |
| 2026-05-08 01:02 | 33.94215 | -118.33998 | 1087 ft | 63 kts | 260° |
| 2026-05-08 01:02 | 33.94166 | -118.34524 | 990 ft | 63 kts | 261° |
| 2026-05-08 01:03 | 33.94110 | -118.35057 | 872 ft | 67 kts | 260° |
| 2026-05-08 01:03 | 33.94057 | -118.35597 | 752 ft | 62 kts | 261° |
| 2026-05-08 01:03 | 33.94008 | -118.36088 | 658 ft | 56 kts | 259° |
| 2026-05-08 01:03 | 33.93934 | -118.36551 | 568 ft | 58 kts | 262° |
| 2026-05-08 01:04 | 33.93866 | -118.37054 | 444 ft | 63 kts | 259° |
| 2026-05-08 01:04 | 33.93810 | -118.37569 | 355 ft | 60 kts | 261° |
| 2026-05-08 01:04 | 33.93758 | -118.38036 | 228 ft | 55 kts | 262° |
| 2026-05-08 01:04 | 33.93708 | -118.38475 | 158 ft | 48 kts | 264° |
| 2026-05-08 01:05 | 33.93683 | -118.38861 | 128 ft | 43 kts | 261° |
| 2026-05-08 01:05 | 33.93667 | -118.39126 | 126 ft | 18 kts | 284° |
| 2026-05-08 01:05 | 33.93689 | -118.39206 | 128 ft | 1 kts | 275° |
| 2026-05-08 01:05 | 33.93686 | -118.39305 | 128 ft | 7 kts | 256° |
| 2026-05-08 01:06 | 33.93683 | -118.39351 | 128 ft | 16 kts | 281° |
| 2026-05-08 01:06 | 33.93685 | -118.39381 | 128 ft | 3 kts | 239° |
| 2026-05-08 01:06 | 33.93675 | -118.39511 | 128 ft | 6 kts | 268° |
| 2026-05-08 01:06 | 33.93629 | -118.39610 | 127 ft | 26 kts | 245° |
| 2026-05-08 01:07 | 33.93579 | -118.39827 | 125 ft | 29 kts | 262° |
| 2026-05-08 01:07 | 33.93552 | -118.40007 | 127 ft | 21 kts | 252° |
| 2026-05-08 01:07 | 33.93496 | -118.40184 | 127 ft | 9 kts | 227° |
| 2026-05-08 01:07 | 33.93484 | -118.40190 | 126 ft | 0 kts | 202° |
| 2026-05-08 01:09 | 33.93473 | -118.40196 | 127 ft | 9 kts | 200° |
| 2026-05-08 01:09 | 33.93425 | -118.40109 | 127 ft | 24 kts | 84° |
| 2026-05-08 01:09 | 33.93445 | -118.39902 | 127 ft | 20 kts | 85° |
| 2026-05-08 01:09 | 33.93419 | -118.39816 | 127 ft | 10 kts | 156° |
| 2026-05-08 01:10 | 33.93378 | -118.39847 | 123 ft | 9 kts | 252° |
| 2026-05-08 01:10 | 33.93354 | -118.39896 | 126 ft | 7 kts | 202° |
| 2026-05-08 01:10 | 33.93332 | -118.39894 | 127 ft | 5 kts | 168° |